Friday, July 20, 2018, 12:31 PM EDT
Back to Local

KOKV, Winchester Regional

Location: Winchester, VA, United States Lat: 39.15
Local Time: 12:31 PM EDT (16:31 GMT) Lon: -78.15
Time Zone: US/Eastern Elev: 728 ft

Show me the last for .
Show Decoded

2018-07-20 12:15 METAR KOKV 201615Z AUTO 17011G16KT 10SM SCT070 26/17 A3012 RMK AO2 =
2018-07-20 11:55 METAR KOKV 201555Z AUTO 15012G15KT 10SM SCT070 26/17 A3013 RMK AO2 =
2018-07-20 11:35 METAR KOKV 201535Z AUTO 14011G14KT 10SM SCT070 26/17 A3013 RMK AO2 =
2018-07-20 11:15 METAR KOKV 201515Z AUTO 18006KT 10SM SCT030 26/18 A3013 RMK AO2 =
2018-07-20 10:55 METAR KOKV 201455Z AUTO 13007KT 110V170 10SM CLR 25/18 A3013 RMK AO2 =
2018-07-20 10:35 METAR KOKV 201435Z AUTO 16006KT 10SM CLR 25/18 A3013 RMK AO2 =
2018-07-20 10:15 METAR KOKV 201415Z AUTO 15005KT 10SM CLR 24/17 A3013 RMK AO2 =
2018-07-20 09:55 METAR KOKV 201355Z AUTO 15007KT 10SM CLR 23/18 A3013 RMK AO2 =
2018-07-20 09:35 METAR KOKV 201335Z AUTO 19004KT 10SM CLR 23/17 A3013 RMK AO2 =
2018-07-20 09:15 METAR KOKV 201315Z AUTO 18005KT 10SM CLR 22/17 A3013 RMK AO2 =
2018-07-20 08:55 METAR KOKV 201255Z AUTO 17004KT 10SM CLR 22/17 A3013 RMK AO2 =
2018-07-20 08:35 METAR KOKV 201235Z AUTO 00000KT 10SM CLR 21/17 A3013 RMK AO2 =
2018-07-20 08:15 METAR KOKV 201215Z AUTO 00000KT 10SM CLR 20/17 A3013 RMK AO2 =
2018-07-20 07:55 METAR KOKV 201155Z AUTO 00000KT 10SM CLR 20/17 A3013 RMK AO2 =
2018-07-20 07:35 METAR KOKV 201135Z AUTO 00000KT 10SM CLR 18/17 A3013 RMK AO2 =
2018-07-20 07:15 METAR KOKV 201115Z AUTO 00000KT 10SM CLR 17/16 A3012 RMK AO2 =
2018-07-20 06:55 METAR KOKV 201055Z AUTO 00000KT 10SM CLR 16/16 A3012 RMK AO2 =
2018-07-20 06:35 METAR KOKV 201035Z AUTO 00000KT 10SM CLR 17/16 A3012 RMK AO2 =
2018-07-20 06:15 METAR KOKV 201015Z AUTO 00000KT 10SM SCT070 17/16 A3011 RMK AO2 =
2018-07-20 05:55 METAR KOKV 200955Z AUTO 00000KT 10SM BKN070 17/16 A3011 RMK AO2 =
2018-07-20 05:35 METAR KOKV 200935Z AUTO 00000KT 10SM OVC070 17/16 A3010 RMK AO2 =
2018-07-20 05:15 METAR KOKV 200915Z AUTO 00000KT 10SM SCT070 16/15 A3011 RMK AO2 =
2018-07-20 04:55 METAR KOKV 200855Z AUTO 00000KT 10SM CLR 16/15 A3011 RMK AO2 =
2018-07-20 04:35 METAR KOKV 200835Z AUTO 00000KT 10SM SCT070 16/15 A3011 RMK AO2 =
2018-07-20 04:15 METAR KOKV 200815Z AUTO 00000KT 10SM SCT070 16/15 A3011 RMK AO2 =
2018-07-20 03:55 METAR KOKV 200755Z AUTO 00000KT 10SM CLR 16/15 A3011 RMK AO2 =
2018-07-20 03:35 METAR KOKV 200735Z AUTO 00000KT 10SM CLR 18/16 A3011 RMK AO2 =
2018-07-20 03:15 METAR KOKV 200715Z AUTO 21003KT 10SM CLR 18/15 A3011 RMK AO2 =
2018-07-20 02:55 METAR KOKV 200655Z AUTO 00000KT 10SM CLR 17/15 A3011 RMK AO2 =
2018-07-20 02:35 METAR KOKV 200635Z AUTO 00000KT 10SM CLR 17/15 A3011 RMK AO2 =
2018-07-20 02:15 METAR KOKV 200615Z AUTO 00000KT 10SM CLR 16/15 A3011 RMK AO2 =
2018-07-20 01:55 METAR KOKV 200555Z AUTO 00000KT 10SM CLR 16/15 A3011 RMK AO2 =
2018-07-20 01:35 METAR KOKV 200535Z AUTO 00000KT 10SM CLR 16/15 A3012 RMK AO2 =
2018-07-20 01:15 METAR KOKV 200515Z AUTO 00000KT 10SM CLR 17/15 A3011 RMK AO2 =
2018-07-20 00:55 METAR KOKV 200455Z AUTO 00000KT 10SM CLR 17/15 A3012 RMK AO2 =
2018-07-20 00:35 METAR KOKV 200435Z AUTO 00000KT 10SM CLR 18/16 A3012 RMK AO2 =
2018-07-20 00:15 METAR KOKV 200415Z AUTO 21003KT 10SM CLR 20/16 A3012 RMK AO2 =
2018-07-19 23:55 METAR KOKV 200355Z AUTO 23003KT 10SM CLR 18/16 A3012 RMK AO2 =
2018-07-19 23:35 METAR KOKV 200335Z AUTO 00000KT 10SM CLR 20/16 A3011 RMK AO2 =
2018-07-19 23:15 METAR KOKV 200315Z AUTO 00000KT 10SM CLR 19/16 A3011 RMK AO2 =
2018-07-19 22:55 METAR KOKV 200255Z AUTO 21003KT 10SM CLR 19/16 A3011 RMK AO2 =
2018-07-19 22:35 METAR KOKV 200235Z AUTO 00000KT 10SM CLR 20/16 A3010 RMK AO2 =
2018-07-19 22:15 METAR KOKV 200215Z AUTO 00000KT 10SM CLR 20/16 A3010 RMK AO2 =
2018-07-19 21:55 METAR KOKV 200155Z AUTO 14003KT 10SM CLR 20/16 A3010 RMK AO2 =
2018-07-19 21:35 METAR KOKV 200135Z AUTO 13003KT 10SM CLR 20/17 A3009 RMK AO2 =
2018-07-19 21:15 METAR KOKV 200115Z AUTO 00000KT 10SM CLR 21/16 A3009 RMK AO2 =
2018-07-19 20:55 METAR KOKV 200055Z AUTO 00000KT 10SM CLR 21/16 A3009 RMK AO2 =
2018-07-19 20:35 METAR KOKV 200035Z AUTO 13003KT 10SM CLR 22/17 A3008 RMK AO2 =
2018-07-19 20:15 METAR KOKV 200015Z AUTO 13003KT 10SM CLR 23/16 A3008 RMK AO2 =
2018-07-19 19:55 METAR KOKV 192355Z AUTO 12005KT 10SM CLR 23/17 A3008 RMK AO2 =
2018-07-19 19:35 METAR KOKV 192335Z AUTO 13004KT 10SM CLR 25/16 A3008 RMK AO2 =
2018-07-19 19:15 METAR KOKV 192315Z AUTO 13005KT 10SM CLR 25/16 A3008 RMK AO2 =
2018-07-19 18:55 METAR KOKV 192255Z AUTO 13005KT 10SM CLR 26/16 A3008 RMK AO2 =
2018-07-19 18:35 METAR KOKV 192235Z AUTO 13004KT 10SM CLR 26/15 A3008 RMK AO2 =
2018-07-19 18:15 METAR KOKV 192215Z AUTO 13006KT 10SM CLR 26/15 A3008 RMK AO2 =
2018-07-19 17:55 METAR KOKV 192155Z AUTO 12006KT 10SM CLR 26/15 A3008 RMK AO2 =
2018-07-19 17:35 METAR KOKV 192135Z AUTO 12008KT 10SM CLR 27/14 A3009 RMK AO2 =
2018-07-19 17:15 METAR KOKV 192115Z AUTO 13009KT 10SM CLR 27/14 A3010 RMK AO2 =
2018-07-19 16:55 METAR KOKV 192055Z AUTO 16005KT 10SM CLR 27/13 A3010 RMK AO2 =
2018-07-19 16:35 METAR KOKV 192035Z AUTO 11006KT 10SM SCT060 27/15 A3010 RMK AO2 =
2018-07-19 16:20 METAR KOKV 192020Z AUTO 13008KT 10SM SCT060 27/15 A3010 RMK AO2 =
2018-07-19 15:55 METAR KOKV 191955Z AUTO 13006KT 10SM SCT060 26/15 A3010 RMK AO2 =
2018-07-19 15:35 METAR KOKV 191935Z AUTO 18004KT 10SM SCT060 27/14 A3011 RMK AO2 =
2018-07-19 15:15 METAR KOKV 191915Z AUTO 16004KT 10SM SCT060 27/13 A3011 RMK AO2 =
2018-07-19 14:55 METAR KOKV 191855Z AUTO 00000KT 10SM SCT050 SCT055 26/13 A3011 RMK AO2 =
2018-07-19 14:35 METAR KOKV 191835Z AUTO 18005KT 10SM BKN050 27/13 A3012 RMK AO2 =
2018-07-19 14:15 METAR KOKV 191815Z AUTO 00000KT 10SM CLR 26/13 A3012 RMK AO2 =
2018-07-19 13:55 METAR KOKV 191755Z AUTO 00000KT 10SM CLR 26/14 A3012 RMK AO2 =
2018-07-19 13:35 METAR KOKV 191735Z AUTO 20003KT 10SM CLR 26/15 A3013 RMK AO2 =
2018-07-19 13:15 METAR KOKV 191715Z AUTO 00000KT 10SM CLR 25/15 A3013 RMK AO2 =
2018-07-19 12:55 METAR KOKV 191655Z AUTO 00000KT 10SM CLR 25/15 A3015 RMK AO2 =
2018-07-19 12:35 METAR KOKV 191635Z AUTO 13005KT 10SM CLR 25/15 A3015 RMK AO2 =

Support USWX by starting your Amazon purchase here.